sensor_id;sensor_type;location;lat;lon;timestamp;P1;durP1;ratioP1;P2;durP2;ratioP2
43150;SDS011;28755;51.478;5.702;2022-11-20T00:00:25;19.13;;;12.82;;
43150;SDS011;28755;51.478;5.702;2022-11-20T00:02:50;18.42;;;12.70;;
43150;SDS011;28755;51.478;5.702;2022-11-20T00:05:16;20.00;;;13.43;;
43150;SDS011;28755;51.478;5.702;2022-11-20T00:07:42;18.70;;;13.00;;
43150;SDS011;28755;51.478;5.702;2022-11-20T00:10:07;21.08;;;13.98;;
43150;SDS011;28755;51.478;5.702;2022-11-20T00:12:33;21.65;;;14.32;;
43150;SDS011;28755;51.478;5.702;2022-11-20T00:14:59;21.63;;;14.48;;
43150;SDS011;28755;51.478;5.702;2022-11-20T00:17:24;21.33;;;13.95;;
43150;SDS011;28755;51.478;5.702;2022-11-20T00:19:50;18.60;;;13.90;;
43150;SDS011;28755;51.478;5.702;2022-11-20T00:22:15;24.20;;;14.57;;
43150;SDS011;28755;51.478;5.702;2022-11-20T00:24:41;22.48;;;14.57;;
43150;SDS011;28755;51.478;5.702;2022-11-20T00:27:07;23.60;;;14.98;;
43150;SDS011;28755;51.478;5.702;2022-11-20T00:29:32;21.35;;;14.27;;
43150;SDS011;28755;51.478;5.702;2022-11-20T00:31:58;23.77;;;15.65;;
43150;SDS011;28755;51.478;5.702;2022-11-20T00:34:23;20.15;;;14.32;;
43150;SDS011;28755;51.478;5.702;2022-11-20T00:36:49;21.38;;;14.60;;
43150;SDS011;28755;51.478;5.702;2022-11-20T00:39:14;20.83;;;14.32;;
43150;SDS011;28755;51.478;5.702;2022-11-20T00:41:40;26.85;;;15.32;;
43150;SDS011;28755;51.478;5.702;2022-11-20T00:44:06;23.52;;;15.40;;
43150;SDS011;28755;51.478;5.702;2022-11-20T00:46:31;21.02;;;14.32;;
43150;SDS011;28755;51.478;5.702;2022-11-20T00:48:57;21.58;;;15.18;;
43150;SDS011;28755;51.478;5.702;2022-11-20T00:51:23;23.63;;;15.98;;
43150;SDS011;28755;51.478;5.702;2022-11-20T00:53:50;23.40;;;15.60;;
43150;SDS011;28755;51.478;5.702;2022-11-20T00:56:17;22.88;;;15.50;;
43150;SDS011;28755;51.478;5.702;2022-11-20T00:58:44;24.52;;;15.23;;
43150;SDS011;28755;51.478;5.702;2022-11-20T01:01:17;22.83;;;14.82;;
43150;SDS011;28755;51.478;5.702;2022-11-20T01:03:44;24.33;;;16.13;;
43150;SDS011;28755;51.478;5.702;2022-11-20T01:06:12;21.75;;;15.38;;
43150;SDS011;28755;51.478;5.702;2022-11-20T01:08:40;25.13;;;16.75;;
43150;SDS011;28755;51.478;5.702;2022-11-20T01:11:09;22.50;;;15.50;;
43150;SDS011;28755;51.478;5.702;2022-11-20T01:13:37;22.00;;;15.13;;
43150;SDS011;28755;51.478;5.702;2022-11-20T01:16:17;22.55;;;15.32;;
43150;SDS011;28755;51.478;5.702;2022-11-20T01:18:46;28.35;;;16.92;;
43150;SDS011;28755;51.478;5.702;2022-11-20T01:21:17;25.25;;;16.25;;
43150;SDS011;28755;51.478;5.702;2022-11-20T01:23:44;23.38;;;15.73;;
43150;SDS011;28755;51.478;5.702;2022-11-20T01:26:12;26.73;;;16.45;;
43150;SDS011;28755;51.478;5.702;2022-11-20T01:28:39;24.73;;;15.68;;
43150;SDS011;28755;51.478;5.702;2022-11-20T01:31:19;21.70;;;14.77;;
43150;SDS011;28755;51.478;5.702;2022-11-20T01:33:50;22.98;;;14.80;;
43150;SDS011;28755;51.478;5.702;2022-11-20T01:36:17;22.23;;;14.85;;
43150;SDS011;28755;51.478;5.702;2022-11-20T01:38:45;24.20;;;15.60;;
43150;SDS011;28755;51.478;5.702;2022-11-20T01:41:11;26.52;;;15.77;;
43150;SDS011;28755;51.478;5.702;2022-11-20T01:43:56;24.20;;;15.98;;
43150;SDS011;28755;51.478;5.702;2022-11-20T01:46:23;26.98;;;15.50;;
43150;SDS011;28755;51.478;5.702;2022-11-20T01:48:58;25.70;;;15.90;;
43150;SDS011;28755;51.478;5.702;2022-11-20T01:51:38;21.67;;;14.73;;
43150;SDS011;28755;51.478;5.702;2022-11-20T01:54:19;23.05;;;15.32;;
43150;SDS011;28755;51.478;5.702;2022-11-20T01:56:51;24.55;;;15.85;;
43150;SDS011;28755;51.478;5.702;2022-11-20T01:59:20;22.95;;;16.58;;
43150;SDS011;28755;51.478;5.702;2022-11-20T02:01:48;21.92;;;15.35;;
43150;SDS011;28755;51.478;5.702;2022-11-20T02:04:14;23.20;;;15.90;;
43150;SDS011;28755;51.478;5.702;2022-11-20T02:06:45;24.17;;;15.27;;
43150;SDS011;28755;51.478;5.702;2022-11-20T02:09:14;24.38;;;16.10;;
43150;SDS011;28755;51.478;5.702;2022-11-20T02:11:41;24.50;;;15.13;;
43150;SDS011;28755;51.478;5.702;2022-11-20T02:14:06;23.58;;;16.45;;
43150;SDS011;28755;51.478;5.702;2022-11-20T02:16:34;22.98;;;15.27;;
43150;SDS011;28755;51.478;5.702;2022-11-20T02:19:22;24.10;;;15.88;;
43150;SDS011;28755;51.478;5.702;2022-11-20T02:21:56;24.80;;;16.48;;
43150;SDS011;28755;51.478;5.702;2022-11-20T02:24:44;23.83;;;15.75;;
43150;SDS011;28755;51.478;5.702;2022-11-20T02:27:12;23.02;;;15.65;;
43150;SDS011;28755;51.478;5.702;2022-11-20T02:32:26;24.35;;;15.65;;
43150;SDS011;28755;51.478;5.702;2022-11-20T02:34:57;25.83;;;16.38;;
43150;SDS011;28755;51.478;5.702;2022-11-20T02:37:32;24.95;;;16.20;;
43150;SDS011;28755;51.478;5.702;2022-11-20T02:40:01;22.92;;;15.45;;
43150;SDS011;28755;51.478;5.702;2022-11-20T02:42:27;25.48;;;15.80;;
43150;SDS011;28755;51.478;5.702;2022-11-20T02:44:52;26.30;;;16.70;;
43150;SDS011;28755;51.478;5.702;2022-11-20T02:47:18;25.92;;;17.40;;
43150;SDS011;28755;51.478;5.702;2022-11-20T02:49:43;26.23;;;16.75;;
43150;SDS011;28755;51.478;5.702;2022-11-20T02:52:09;24.92;;;16.17;;
43150;SDS011;28755;51.478;5.702;2022-11-20T02:54:35;24.52;;;16.52;;
43150;SDS011;28755;51.478;5.702;2022-11-20T02:57:00;22.88;;;15.40;;
43150;SDS011;28755;51.478;5.702;2022-11-20T02:59:26;23.98;;;16.02;;
43150;SDS011;28755;51.478;5.702;2022-11-20T03:01:51;22.90;;;15.35;;
43150;SDS011;28755;51.478;5.702;2022-11-20T03:04:17;24.83;;;15.75;;
43150;SDS011;28755;51.478;5.702;2022-11-20T03:06:43;26.75;;;16.17;;
43150;SDS011;28755;51.478;5.702;2022-11-20T03:09:08;25.13;;;15.70;;
43150;SDS011;28755;51.478;5.702;2022-11-20T03:11:34;26.55;;;16.05;;
43150;SDS011;28755;51.478;5.702;2022-11-20T03:14:03;23.52;;;15.93;;
43150;SDS011;28755;51.478;5.702;2022-11-20T03:16:30;25.73;;;15.43;;
43150;SDS011;28755;51.478;5.702;2022-11-20T03:18:56;24.67;;;16.13;;
43150;SDS011;28755;51.478;5.702;2022-11-20T03:21:22;26.25;;;16.00;;
43150;SDS011;28755;51.478;5.702;2022-11-20T03:23:47;25.85;;;16.48;;
43150;SDS011;28755;51.478;5.702;2022-11-20T03:26:20;22.65;;;15.25;;
43150;SDS011;28755;51.478;5.702;2022-11-20T03:28:48;24.98;;;15.40;;
43150;SDS011;28755;51.478;5.702;2022-11-20T03:31:16;21.75;;;15.15;;
43150;SDS011;28755;51.478;5.702;2022-11-20T03:33:44;24.17;;;15.85;;
43150;SDS011;28755;51.478;5.702;2022-11-20T03:36:12;26.42;;;14.93;;
43150;SDS011;28755;51.478;5.702;2022-11-20T03:38:40;23.33;;;15.07;;
43150;SDS011;28755;51.478;5.702;2022-11-20T03:41:08;23.38;;;15.35;;
43150;SDS011;28755;51.478;5.702;2022-11-20T03:43:36;25.23;;;15.95;;
43150;SDS011;28755;51.478;5.702;2022-11-20T03:46:02;26.52;;;16.48;;
43150;SDS011;28755;51.478;5.702;2022-11-20T03:48:28;24.85;;;16.42;;
43150;SDS011;28755;51.478;5.702;2022-11-20T03:51:13;25.80;;;16.58;;
43150;SDS011;28755;51.478;5.702;2022-11-20T03:53:45;24.85;;;15.98;;
43150;SDS011;28755;51.478;5.702;2022-11-20T03:56:13;23.10;;;15.93;;
43150;SDS011;28755;51.478;5.702;2022-11-20T03:58:40;23.65;;;16.73;;
43150;SDS011;28755;51.478;5.702;2022-11-20T04:01:09;23.75;;;16.27;;
43150;SDS011;28755;51.478;5.702;2022-11-20T04:03:35;26.10;;;15.88;;
43150;SDS011;28755;51.478;5.702;2022-11-20T04:06:05;23.60;;;16.15;;
43150;SDS011;28755;51.478;5.702;2022-11-20T04:08:36;25.55;;;16.05;;
43150;SDS011;28755;51.478;5.702;2022-11-20T04:13:34;23.67;;;16.27;;
43150;SDS011;28755;51.478;5.702;2022-11-20T04:16:00;24.08;;;15.88;;
43150;SDS011;28755;51.478;5.702;2022-11-20T04:18:25;26.05;;;15.95;;
43150;SDS011;28755;51.478;5.702;2022-11-20T04:20:51;23.58;;;15.60;;
43150;SDS011;28755;51.478;5.702;2022-11-20T04:23:17;24.90;;;16.98;;
43150;SDS011;28755;51.478;5.702;2022-11-20T04:25:42;27.38;;;17.55;;
43150;SDS011;28755;51.478;5.702;2022-11-20T04:28:08;30.58;;;16.17;;
43150;SDS011;28755;51.478;5.702;2022-11-20T04:30:34;25.58;;;16.33;;
43150;SDS011;28755;51.478;5.702;2022-11-20T04:33:00;26.23;;;16.77;;
43150;SDS011;28755;51.478;5.702;2022-11-20T04:35:25;23.83;;;15.95;;
43150;SDS011;28755;51.478;5.702;2022-11-20T04:37:51;24.33;;;15.57;;
43150;SDS011;28755;51.478;5.702;2022-11-20T04:40:17;24.67;;;15.65;;
43150;SDS011;28755;51.478;5.702;2022-11-20T04:42:43;23.10;;;15.45;;
43150;SDS011;28755;51.478;5.702;2022-11-20T04:45:08;25.00;;;16.65;;
43150;SDS011;28755;51.478;5.702;2022-11-20T04:47:34;26.08;;;16.88;;
43150;SDS011;28755;51.478;5.702;2022-11-20T04:50:00;27.02;;;16.33;;
43150;SDS011;28755;51.478;5.702;2022-11-20T04:52:25;25.00;;;15.57;;
43150;SDS011;28755;51.478;5.702;2022-11-20T04:54:51;27.30;;;16.33;;
43150;SDS011;28755;51.478;5.702;2022-11-20T04:57:19;23.92;;;16.45;;
43150;SDS011;28755;51.478;5.702;2022-11-20T04:59:45;25.63;;;16.27;;
43150;SDS011;28755;51.478;5.702;2022-11-20T05:02:11;25.85;;;15.77;;
43150;SDS011;28755;51.478;5.702;2022-11-20T05:04:36;22.60;;;15.65;;
43150;SDS011;28755;51.478;5.702;2022-11-20T05:07:02;23.00;;;15.77;;
43150;SDS011;28755;51.478;5.702;2022-11-20T05:09:28;26.17;;;16.98;;
43150;SDS011;28755;51.478;5.702;2022-11-20T05:11:54;25.35;;;16.60;;
43150;SDS011;28755;51.478;5.702;2022-11-20T05:14:19;25.67;;;16.90;;
43150;SDS011;28755;51.478;5.702;2022-11-20T05:16:45;29.63;;;16.58;;
43150;SDS011;28755;51.478;5.702;2022-11-20T05:19:11;25.27;;;16.45;;
43150;SDS011;28755;51.478;5.702;2022-11-20T05:21:36;25.17;;;15.63;;
43150;SDS011;28755;51.478;5.702;2022-11-20T05:24:02;26.15;;;17.05;;
43150;SDS011;28755;51.478;5.702;2022-11-20T05:26:28;25.33;;;16.33;;
43150;SDS011;28755;51.478;5.702;2022-11-20T05:28:53;27.23;;;17.05;;
43150;SDS011;28755;51.478;5.702;2022-11-20T05:31:20;27.80;;;16.70;;
43150;SDS011;28755;51.478;5.702;2022-11-20T05:33:46;24.58;;;16.45;;
43150;SDS011;28755;51.478;5.702;2022-11-20T05:36:13;22.98;;;15.73;;
43150;SDS011;28755;51.478;5.702;2022-11-20T05:38:40;25.55;;;16.85;;
43150;SDS011;28755;51.478;5.702;2022-11-20T05:41:13;25.08;;;17.42;;
43150;SDS011;28755;51.478;5.702;2022-11-20T05:43:41;26.42;;;16.52;;
43150;SDS011;28755;51.478;5.702;2022-11-20T05:46:10;26.27;;;16.92;;
43150;SDS011;28755;51.478;5.702;2022-11-20T05:48:37;25.33;;;17.17;;
43150;SDS011;28755;51.478;5.702;2022-11-20T05:51:05;26.13;;;17.48;;
43150;SDS011;28755;51.478;5.702;2022-11-20T05:53:32;25.38;;;16.45;;
43150;SDS011;28755;51.478;5.702;2022-11-20T05:56:02;26.52;;;17.67;;
43150;SDS011;28755;51.478;5.702;2022-11-20T05:58:33;26.95;;;16.90;;
43150;SDS011;28755;51.478;5.702;2022-11-20T06:03:36;26.67;;;18.00;;
43150;SDS011;28755;51.478;5.702;2022-11-20T06:06:02;28.92;;;16.75;;
43150;SDS011;28755;51.478;5.702;2022-11-20T06:08:29;29.00;;;16.83;;
43150;SDS011;28755;51.478;5.702;2022-11-20T06:10:54;26.27;;;16.73;;
43150;SDS011;28755;51.478;5.702;2022-11-20T06:13:20;28.33;;;17.08;;
43150;SDS011;28755;51.478;5.702;2022-11-20T06:15:52;25.17;;;16.25;;
43150;SDS011;28755;51.478;5.702;2022-11-20T06:18:18;27.30;;;18.35;;
43150;SDS011;28755;51.478;5.702;2022-11-20T06:20:44;29.98;;;17.45;;
43150;SDS011;28755;51.478;5.702;2022-11-20T06:23:10;27.35;;;17.48;;
43150;SDS011;28755;51.478;5.702;2022-11-20T06:25:37;27.80;;;16.95;;
43150;SDS011;28755;51.478;5.702;2022-11-20T06:28:06;27.85;;;16.92;;
43150;SDS011;28755;51.478;5.702;2022-11-20T06:30:32;28.00;;;17.15;;
43150;SDS011;28755;51.478;5.702;2022-11-20T06:32:58;25.40;;;16.60;;
43150;SDS011;28755;51.478;5.702;2022-11-20T06:35:24;28.38;;;17.38;;
43150;SDS011;28755;51.478;5.702;2022-11-20T06:37:49;27.10;;;17.27;;
43150;SDS011;28755;51.478;5.702;2022-11-20T06:40:15;26.17;;;17.35;;
43150;SDS011;28755;51.478;5.702;2022-11-20T06:42:40;26.67;;;17.15;;
43150;SDS011;28755;51.478;5.702;2022-11-20T06:45:06;26.73;;;17.50;;
43150;SDS011;28755;51.478;5.702;2022-11-20T06:47:32;26.42;;;17.73;;
43150;SDS011;28755;51.478;5.702;2022-11-20T06:49:58;24.85;;;16.85;;
43150;SDS011;28755;51.478;5.702;2022-11-20T06:52:24;24.13;;;16.67;;
43150;SDS011;28755;51.478;5.702;2022-11-20T06:54:49;24.27;;;16.30;;
43150;SDS011;28755;51.478;5.702;2022-11-20T06:57:15;25.25;;;16.27;;
43150;SDS011;28755;51.478;5.702;2022-11-20T06:59:41;26.08;;;16.73;;
43150;SDS011;28755;51.478;5.702;2022-11-20T07:02:09;26.20;;;16.60;;
43150;SDS011;28755;51.478;5.702;2022-11-20T07:04:36;25.55;;;17.15;;
43150;SDS011;28755;51.478;5.702;2022-11-20T07:07:01;28.45;;;16.85;;
43150;SDS011;28755;51.478;5.702;2022-11-20T07:09:27;24.38;;;16.80;;
43150;SDS011;28755;51.478;5.702;2022-11-20T07:11:52;24.55;;;16.77;;
43150;SDS011;28755;51.478;5.702;2022-11-20T07:14:18;25.63;;;16.98;;
43150;SDS011;28755;51.478;5.702;2022-11-20T07:16:44;30.15;;;17.02;;
43150;SDS011;28755;51.478;5.702;2022-11-20T07:19:09;21.67;;;15.07;;
43150;SDS011;28755;51.478;5.702;2022-11-20T07:21:35;26.17;;;17.42;;
43150;SDS011;28755;51.478;5.702;2022-11-20T07:24:00;24.58;;;16.08;;
43150;SDS011;28755;51.478;5.702;2022-11-20T07:26:26;24.60;;;15.80;;
43150;SDS011;28755;51.478;5.702;2022-11-20T07:28:52;25.42;;;15.68;;
43150;SDS011;28755;51.478;5.702;2022-11-20T07:31:17;27.20;;;16.65;;
43150;SDS011;28755;51.478;5.702;2022-11-20T07:33:43;26.35;;;16.55;;
43150;SDS011;28755;51.478;5.702;2022-11-20T07:36:08;25.83;;;16.35;;
43150;SDS011;28755;51.478;5.702;2022-11-20T07:38:34;25.38;;;16.70;;
43150;SDS011;28755;51.478;5.702;2022-11-20T07:41:00;26.42;;;16.60;;
43150;SDS011;28755;51.478;5.702;2022-11-20T07:43:26;26.58;;;16.63;;
43150;SDS011;28755;51.478;5.702;2022-11-20T07:45:54;25.90;;;17.05;;
43150;SDS011;28755;51.478;5.702;2022-11-20T07:48:21;24.92;;;15.82;;
43150;SDS011;28755;51.478;5.702;2022-11-20T07:50:46;24.73;;;16.42;;
43150;SDS011;28755;51.478;5.702;2022-11-20T07:53:12;26.38;;;17.38;;
43150;SDS011;28755;51.478;5.702;2022-11-20T07:55:38;25.23;;;16.38;;
43150;SDS011;28755;51.478;5.702;2022-11-20T07:58:04;24.73;;;16.60;;
43150;SDS011;28755;51.478;5.702;2022-11-20T08:00:30;26.77;;;17.35;;
43150;SDS011;28755;51.478;5.702;2022-11-20T08:02:56;26.63;;;16.65;;
43150;SDS011;28755;51.478;5.702;2022-11-20T08:05:21;29.08;;;17.10;;
43150;SDS011;28755;51.478;5.702;2022-11-20T08:07:47;23.10;;;15.77;;
43150;SDS011;28755;51.478;5.702;2022-11-20T08:10:13;25.70;;;16.83;;
43150;SDS011;28755;51.478;5.702;2022-11-20T08:12:47;26.48;;;17.25;;
43150;SDS011;28755;51.478;5.702;2022-11-20T08:15:32;25.83;;;16.98;;
43150;SDS011;28755;51.478;5.702;2022-11-20T08:17:59;28.25;;;17.45;;
43150;SDS011;28755;51.478;5.702;2022-11-20T08:20:32;24.95;;;16.35;;
43150;SDS011;28755;51.478;5.702;2022-11-20T08:22:59;26.25;;;17.02;;
43150;SDS011;28755;51.478;5.702;2022-11-20T08:25:26;33.72;;;18.40;;
43150;SDS011;28755;51.478;5.702;2022-11-20T08:27:53;28.60;;;17.40;;
43150;SDS011;28755;51.478;5.702;2022-11-20T08:30:19;26.80;;;17.90;;
43150;SDS011;28755;51.478;5.702;2022-11-20T08:32:45;28.30;;;16.88;;
43150;SDS011;28755;51.478;5.702;2022-11-20T08:35:10;25.10;;;17.45;;
43150;SDS011;28755;51.478;5.702;2022-11-20T08:37:36;24.90;;;17.27;;
43150;SDS011;28755;51.478;5.702;2022-11-20T08:40:06;25.88;;;17.00;;
43150;SDS011;28755;51.478;5.702;2022-11-20T08:42:35;23.63;;;17.02;;
43150;SDS011;28755;51.478;5.702;2022-11-20T08:45:01;26.73;;;17.85;;
43150;SDS011;28755;51.478;5.702;2022-11-20T08:47:27;24.23;;;16.23;;
43150;SDS011;28755;51.478;5.702;2022-11-20T08:49:53;30.17;;;17.65;;
43150;SDS011;28755;51.478;5.702;2022-11-20T08:52:19;27.40;;;17.88;;
43150;SDS011;28755;51.478;5.702;2022-11-20T08:54:44;30.60;;;18.58;;
43150;SDS011;28755;51.478;5.702;2022-11-20T08:57:10;29.00;;;18.17;;
43150;SDS011;28755;51.478;5.702;2022-11-20T08:59:35;30.60;;;19.55;;
43150;SDS011;28755;51.478;5.702;2022-11-20T09:02:01;32.70;;;19.80;;
43150;SDS011;28755;51.478;5.702;2022-11-20T09:04:26;32.90;;;20.77;;
43150;SDS011;28755;51.478;5.702;2022-11-20T09:06:52;33.20;;;20.83;;
43150;SDS011;28755;51.478;5.702;2022-11-20T09:09:17;35.38;;;22.38;;
43150;SDS011;28755;51.478;5.702;2022-11-20T09:11:43;37.20;;;23.92;;
43150;SDS011;28755;51.478;5.702;2022-11-20T09:14:09;42.88;;;24.27;;
43150;SDS011;28755;51.478;5.702;2022-11-20T09:16:35;38.97;;;23.77;;
43150;SDS011;28755;51.478;5.702;2022-11-20T09:19:00;38.17;;;23.98;;
43150;SDS011;28755;51.478;5.702;2022-11-20T09:21:26;40.15;;;24.63;;
43150;SDS011;28755;51.478;5.702;2022-11-20T09:23:52;39.20;;;23.77;;
43150;SDS011;28755;51.478;5.702;2022-11-20T09:26:17;37.13;;;22.98;;
43150;SDS011;28755;51.478;5.702;2022-11-20T09:28:45;48.35;;;25.67;;
43150;SDS011;28755;51.478;5.702;2022-11-20T09:31:17;45.28;;;26.08;;
43150;SDS011;28755;51.478;5.702;2022-11-20T09:33:47;44.47;;;25.85;;
43150;SDS011;28755;51.478;5.702;2022-11-20T09:36:13;49.20;;;27.33;;
43150;SDS011;28755;51.478;5.702;2022-11-20T09:38:39;47.05;;;27.05;;
43150;SDS011;28755;51.478;5.702;2022-11-20T09:41:05;51.30;;;28.10;;
43150;SDS011;28755;51.478;5.702;2022-11-20T09:43:50;44.53;;;26.70;;
43150;SDS011;28755;51.478;5.702;2022-11-20T09:46:47;46.92;;;26.40;;
43150;SDS011;28755;51.478;5.702;2022-11-20T09:49:23;49.30;;;25.42;;
43150;SDS011;28755;51.478;5.702;2022-11-20T09:52:18;43.03;;;24.98;;
43150;SDS011;28755;51.478;5.702;2022-11-20T09:54:54;42.42;;;24.85;;
43150;SDS011;28755;51.478;5.702;2022-11-20T09:57:21;46.83;;;24.38;;
43150;SDS011;28755;51.478;5.702;2022-11-20T09:59:53;41.55;;;24.88;;
43150;SDS011;28755;51.478;5.702;2022-11-20T10:04:53;48.08;;;25.58;;
43150;SDS011;28755;51.478;5.702;2022-11-20T10:10:33;49.75;;;25.88;;
43150;SDS011;28755;51.478;5.702;2022-11-20T10:13:17;53.88;;;27.52;;
43150;SDS011;28755;51.478;5.702;2022-11-20T10:24:30;56.10;;;28.17;;
43150;SDS011;28755;51.478;5.702;2022-11-20T10:29:39;67.05;;;29.17;;
43150;SDS011;28755;51.478;5.702;2022-11-20T10:32:15;56.30;;;28.17;;
43150;SDS011;28755;51.478;5.702;2022-11-20T10:35:07;61.90;;;28.52;;
43150;SDS011;28755;51.478;5.702;2022-11-20T10:37:47;62.28;;;29.40;;
43150;SDS011;28755;51.478;5.702;2022-11-20T10:40:22;57.47;;;28.08;;
43150;SDS011;28755;51.478;5.702;2022-11-20T10:43:12;64.43;;;30.10;;
43150;SDS011;28755;51.478;5.702;2022-11-20T10:45:47;51.95;;;27.15;;
43150;SDS011;28755;51.478;5.702;2022-11-20T10:48:33;55.47;;;29.10;;
43150;SDS011;28755;51.478;5.702;2022-11-20T10:53:55;62.30;;;31.05;;
43150;SDS011;28755;51.478;5.702;2022-11-20T11:01:52;62.17;;;29.92;;
43150;SDS011;28755;51.478;5.702;2022-11-20T11:04:29;56.55;;;28.73;;
43150;SDS011;28755;51.478;5.702;2022-11-20T11:12:16;60.85;;;28.55;;
43150;SDS011;28755;51.478;5.702;2022-11-20T11:14:44;60.03;;;29.42;;
43150;SDS011;28755;51.478;5.702;2022-11-20T11:20:17;61.92;;;29.65;;
43150;SDS011;28755;51.478;5.702;2022-11-20T11:22:50;67.90;;;30.58;;
43150;SDS011;28755;51.478;5.702;2022-11-20T11:25:22;62.97;;;30.30;;
43150;SDS011;28755;51.478;5.702;2022-11-20T11:28:32;64.15;;;30.52;;
43150;SDS011;28755;51.478;5.702;2022-11-20T11:30:52;57.17;;;29.27;;
43150;SDS011;28755;51.478;5.702;2022-11-20T11:33:19;61.20;;;29.95;;
43150;SDS011;28755;51.478;5.702;2022-11-20T11:35:57;67.15;;;30.42;;
43150;SDS011;28755;51.478;5.702;2022-11-20T11:40:59;61.13;;;29.73;;
43150;SDS011;28755;51.478;5.702;2022-11-20T11:43:27;58.97;;;29.60;;
43150;SDS011;28755;51.478;5.702;2022-11-20T11:46:25;57.45;;;29.08;;
43150;SDS011;28755;51.478;5.702;2022-11-20T11:49:00;59.33;;;29.92;;
43150;SDS011;28755;51.478;5.702;2022-11-20T11:51:28;55.33;;;30.00;;
43150;SDS011;28755;51.478;5.702;2022-11-20T11:54:03;60.58;;;29.13;;
43150;SDS011;28755;51.478;5.702;2022-11-20T11:56:38;58.38;;;29.95;;
43150;SDS011;28755;51.478;5.702;2022-11-20T11:59:04;55.63;;;29.63;;
43150;SDS011;28755;51.478;5.702;2022-11-20T12:01:43;58.47;;;30.67;;
43150;SDS011;28755;51.478;5.702;2022-11-20T12:07:08;64.43;;;29.77;;
43150;SDS011;28755;51.478;5.702;2022-11-20T12:09:39;58.63;;;29.55;;
43150;SDS011;28755;51.478;5.702;2022-11-20T12:12:18;58.35;;;31.15;;
43150;SDS011;28755;51.478;5.702;2022-11-20T12:14:48;59.17;;;31.00;;
43150;SDS011;28755;51.478;5.702;2022-11-20T12:17:20;59.60;;;30.52;;
43150;SDS011;28755;51.478;5.702;2022-11-20T12:19:46;54.70;;;29.48;;
43150;SDS011;28755;51.478;5.702;2022-11-20T12:22:32;59.10;;;30.58;;
43150;SDS011;28755;51.478;5.702;2022-11-20T12:25:17;61.72;;;30.95;;
43150;SDS011;28755;51.478;5.702;2022-11-20T12:27:49;60.10;;;31.05;;
43150;SDS011;28755;51.478;5.702;2022-11-20T12:30:29;58.35;;;29.65;;
43150;SDS011;28755;51.478;5.702;2022-11-20T12:33:16;56.45;;;30.48;;
43150;SDS011;28755;51.478;5.702;2022-11-20T12:56:00;60.83;;;30.80;;
43150;SDS011;28755;51.478;5.702;2022-11-20T12:58:30;61.05;;;31.77;;
43150;SDS011;28755;51.478;5.702;2022-11-20T13:04:01;64.18;;;31.30;;
43150;SDS011;28755;51.478;5.702;2022-11-20T13:06:47;58.38;;;30.35;;
43150;SDS011;28755;51.478;5.702;2022-11-20T13:09:15;56.08;;;29.98;;
43150;SDS011;28755;51.478;5.702;2022-11-20T13:11:47;53.88;;;29.48;;
43150;SDS011;28755;51.478;5.702;2022-11-20T13:14:51;60.88;;;30.98;;
43150;SDS011;28755;51.478;5.702;2022-11-20T13:17:47;58.28;;;29.38;;
43150;SDS011;28755;51.478;5.702;2022-11-20T13:20:19;63.60;;;31.85;;
43150;SDS011;28755;51.478;5.702;2022-11-20T13:22:46;63.85;;;31.40;;
43150;SDS011;28755;51.478;5.702;2022-11-20T13:25:36;62.42;;;31.17;;
43150;SDS011;28755;51.478;5.702;2022-11-20T13:28:04;68.18;;;31.60;;
43150;SDS011;28755;51.478;5.702;2022-11-20T13:30:50;59.85;;;30.77;;
43150;SDS011;28755;51.478;5.702;2022-11-20T13:35:56;57.90;;;32.35;;
43150;SDS011;28755;51.478;5.702;2022-11-20T13:38:27;62.03;;;31.75;;
43150;SDS011;28755;51.478;5.702;2022-11-20T13:41:00;61.17;;;31.25;;
43150;SDS011;28755;51.478;5.702;2022-11-20T13:43:46;68.20;;;31.75;;
43150;SDS011;28755;51.478;5.702;2022-11-20T13:46:13;62.97;;;32.92;;
43150;SDS011;28755;51.478;5.702;2022-11-20T13:48:41;61.75;;;32.03;;
43150;SDS011;28755;51.478;5.702;2022-11-20T13:51:12;63.05;;;31.02;;
43150;SDS011;28755;51.478;5.702;2022-11-20T13:57:02;63.55;;;31.23;;
43150;SDS011;28755;51.478;5.702;2022-11-20T13:59:58;61.75;;;31.83;;
43150;SDS011;28755;51.478;5.702;2022-11-20T14:05:38;66.97;;;34.47;;
43150;SDS011;28755;51.478;5.702;2022-11-20T14:08:14;67.97;;;34.22;;
43150;SDS011;28755;51.478;5.702;2022-11-20T14:10:48;67.75;;;35.83;;
43150;SDS011;28755;51.478;5.702;2022-11-20T14:13:18;64.95;;;32.88;;
43150;SDS011;28755;51.478;5.702;2022-11-20T14:15:45;68.72;;;33.05;;
43150;SDS011;28755;51.478;5.702;2022-11-20T14:18:14;70.63;;;34.15;;
43150;SDS011;28755;51.478;5.702;2022-11-20T14:20:45;61.00;;;31.58;;
43150;SDS011;28755;51.478;5.702;2022-11-20T14:23:11;61.95;;;31.17;;
43150;SDS011;28755;51.478;5.702;2022-11-20T14:25:41;58.05;;;32.38;;
43150;SDS011;28755;51.478;5.702;2022-11-20T14:28:11;61.95;;;32.67;;
43150;SDS011;28755;51.478;5.702;2022-11-20T14:30:46;68.60;;;32.88;;
43150;SDS011;28755;51.478;5.702;2022-11-20T14:33:13;60.03;;;30.17;;
43150;SDS011;28755;51.478;5.702;2022-11-20T14:35:58;58.92;;;30.48;;
43150;SDS011;28755;51.478;5.702;2022-11-20T14:38:25;59.10;;;29.65;;
43150;SDS011;28755;51.478;5.702;2022-11-20T14:40:52;55.30;;;29.13;;
43150;SDS011;28755;51.478;5.702;2022-11-20T14:43:19;65.03;;;30.45;;
43150;SDS011;28755;51.478;5.702;2022-11-20T14:45:56;59.80;;;29.63;;
43150;SDS011;28755;51.478;5.702;2022-11-20T14:48:29;64.10;;;30.58;;
43150;SDS011;28755;51.478;5.702;2022-11-20T14:50:57;63.55;;;30.67;;
43150;SDS011;28755;51.478;5.702;2022-11-20T14:53:24;65.82;;;30.98;;
43150;SDS011;28755;51.478;5.702;2022-11-20T14:56:00;58.83;;;30.38;;
43150;SDS011;28755;51.478;5.702;2022-11-20T14:58:30;66.15;;;32.97;;
43150;SDS011;28755;51.478;5.702;2022-11-20T15:00:59;65.53;;;32.20;;
43150;SDS011;28755;51.478;5.702;2022-11-20T15:06:02;62.92;;;31.70;;
43150;SDS011;28755;51.478;5.702;2022-11-20T15:08:29;66.53;;;31.17;;
43150;SDS011;28755;51.478;5.702;2022-11-20T15:10:55;68.53;;;32.47;;
43150;SDS011;28755;51.478;5.702;2022-11-20T15:13:34;68.32;;;31.95;;
43150;SDS011;28755;51.478;5.702;2022-11-20T15:16:02;64.03;;;30.75;;
43150;SDS011;28755;51.478;5.702;2022-11-20T15:18:36;71.28;;;33.35;;
43150;SDS011;28755;51.478;5.702;2022-11-20T15:21:09;67.47;;;33.67;;
43150;SDS011;28755;51.478;5.702;2022-11-20T15:23:36;71.93;;;32.78;;
43150;SDS011;28755;51.478;5.702;2022-11-20T15:26:04;73.07;;;34.30;;
43150;SDS011;28755;51.478;5.702;2022-11-20T15:28:31;81.00;;;34.55;;
43150;SDS011;28755;51.478;5.702;2022-11-20T15:31:02;75.28;;;34.25;;
43150;SDS011;28755;51.478;5.702;2022-11-20T15:33:29;68.78;;;33.03;;
43150;SDS011;28755;51.478;5.702;2022-11-20T15:35:55;70.28;;;33.05;;
43150;SDS011;28755;51.478;5.702;2022-11-20T15:38:21;75.13;;;34.20;;
43150;SDS011;28755;51.478;5.702;2022-11-20T15:40:47;74.55;;;34.80;;
43150;SDS011;28755;51.478;5.702;2022-11-20T15:43:13;76.32;;;34.38;;
43150;SDS011;28755;51.478;5.702;2022-11-20T15:48:08;68.07;;;33.47;;
43150;SDS011;28755;51.478;5.702;2022-11-20T15:50:38;71.68;;;33.15;;
43150;SDS011;28755;51.478;5.702;2022-11-20T15:53:15;72.78;;;33.03;;
43150;SDS011;28755;51.478;5.702;2022-11-20T15:55:41;72.70;;;32.80;;
43150;SDS011;28755;51.478;5.702;2022-11-20T15:58:06;74.13;;;34.88;;